KYA weather

Konya Airport
Konya, Konya Province, Turkey

Public forecast

Using degrees Celsius for public forecast. Weather courtesy of forecast.io.

METAR (pilot weather report)

Retrieved 2019/06/24 16:50 UTC (31 minutes ago):

LTAN 241650Z 36007KT 9999 FEW040 27/06 Q1016 NOSIG RMK RWY19 01008KT

TAF (pilot weather forecast)

Forecast is more than 12 hours old.

Retrieved 2010/09/30 10:40 UTC (9 years ago):

TAF LTAN 301040Z 3012/0112 24012KT 9999 SCT035 BKN090 TEMPO 3012/3016 -SHRA BKN035